Relevés horaires St-Hubert (Belgique)


Relevés horaires à St-Hubert - Samedi 28 Mai 2022
Heure UTC1 Température [°C] Vent [km/h] Hum. [%] Pres.4 [hPa] Visi. [Km] Nébu. [octa] Préc.5 [mm] Cond.
2m. Res. Ros. Dir.2 Vit. Moy. Raf.3
23:00 5.3 3.6 1.0 N 7.4 7.4 11.1 74 1019.8(-1.1/3h) 40 0/8 -- --
22:00 6.2 4.7 1.1 N 7.4 7.4 11.1 70 1020(-0.8/3h) 45 8/8 -- --
21:00 7.1 5.7 1.3 NNO 7.4 9.3 14.8 67 1020.3(-0.5/3h) 35 0/8 -- --
20:00 8.3 7.1 1.1 NNO 7.4 9.3 13.0 60 1020.2(-0.4/3h) 40 8/8 -- --
19:00 9.5 8.6 1.4 NNO 7.4 9.3 14.8 57 1020(-0.4/3h) 45 8/8 -- --
18:00 10.3 9.5 1.8 NNO 7.4 13.0 20.4 56 1020(-0.8/3h) 45 4/8 0/12h
--
17:00 11.6 10.4 2.1 NNO 11.1 13.0 16.7 52 1019.8(-0.9/3h) 40 8/8 -- --
16:00 11.9 10.7 2.4 NNO 11.1 11.1 20.4 52 1019.9(-1.2/3h) 40 8/8 -- --
15:00 11.8 10.9 3.7 NO 9.3 11.1 18.5 58 1020.5(-1.2/3h) 45 8/8 -- --
14:00 11.4 10.8 4.4 N 7.4 11.1 16.7 62 1020.8(-1.3/3h) 30 8/8 -- Ciel clair
13:00 12.5 11.5 3.1 ONO 11.1 11.1 18.5 53 1021(-1.3/3h) 30 7/8 -- --
12:00 12.2 12.1 3.4 NNO 5.6 9.3 14.8 55 1021.7(-1.0/3h) 35 7/8 0/6h
--
11:00 11.3 11.1 3.7 NO 5.6 9.3 13.0 59 1022.3(-0.6/3h) 30 8/8 -- --
10:00 10.6 9.5 4.1 NO 9.3 9.3 14.8 64 1022.8(0.2/3h) 30 7/8 -- --
09:00 9.7 9.2 4.1 ONO 5.6 9.3 13.0 68 1023.3(0.1/3h) 23 7/8 -- --
08:00 9.4 8.4 4.3 NNO 7.4 9.3 13.0 70 1023.4(0.2/3h) 22 1/8 -- --
07:00 9.5 8.6 3.7 NO 7.4 7.4 13.0 67 1023.3(0.3/3h) 24 0/8 -- --
06:00 8.4 8.4 3.6 O 3.7 5.6 7.4 72 1023.5(0.3/3h) 20 0/8 0/12h
--
05:00 7.0 6.1 3.3 NO 5.6 5.6 7.4 77 1023.8(-0.1/3h) 25 7/8 -- --
04:00 5.9 5.9 1.8 NO 3.7 5.6 7.4 75 1023.9(-0.5/3h) 26 0/8 -- --
03:00 5.2 5.2 1.8 ONO 1.9 5.6 7.4 79 1024(-0.7/3h) -- 0/8 -- --
02:00 6.5 5.6 2.4 NO 5.6 5.6 7.4 75 1024(-1.1/3h) 30 0/8 -- --
01:00 6.9 6 2.0 NNO 5.6 5.6 7.4 71 1024.2(-1.1/3h) 30 1/8 -- --
00:00 7.5 6.7 2.2 N 5.6 13.0 18.5 69 1024.2(-0.9/3h) 30 0/8 0/6h
5.4/24h
--

1 Coordinated Universal Time. Actuellement il est 22:00 locale et 21:00 UTC.

2 Le vent souffle depuis la direction indiquée vers la direction oposée.

3 Les rafales max. sont disponible 40 min après l'heure du relevé.

4 Pour les stations d'altitude (plus de 600m) le géopotentiel du niveau le plus proche de la pression obligatoire est indiqué.

5 Les stations disposant d'un diffuseur peuvent indiquer "trace". Cela signifie que des précipitations ont touchés le sol mais que la quantité est inférieure à 0.1 mm.

Récapitulatif de la journée
Température [°C] Vent [km/h] Ensoleillement4 [h] Precipitations totale5 [mm] Pression [Hpa]
Min1 Max.2 Moy.3 Max. Min Max.
5.0 13.3 8.9 20.4 0 h 0 min 0 1019.8 1024.2

1 Température minimale relevée entre 18:00 UTC la veille et 18:00 UTC le jour donné.

2 Température maximale relevée entre 06:00 UTC le jour donné et 06:00 UTC le lendemain.

3 Vent moyen de la journée basé sur les relevés horaires.

4 Ensoleillement en heures relevé entre 06:00 UTC la veille et 06:00 UTC le jour donné.

5 Précipitations totales tombées entre 06:00 UTC la jour donné et 06:00 UTC le lendemain.

Graphiques horaires